createdAt,value
2023-02-13T00:01:09.221Z,102383.00
2023-02-13T00:03:40.357Z,102382.00
2023-02-13T00:06:14.280Z,102385.00
2023-02-13T00:08:42.075Z,102384.00
2023-02-13T00:11:13.204Z,102378.00
2023-02-13T00:13:41.712Z,102374.00
2023-02-13T00:16:10.348Z,102373.00
2023-02-13T00:18:42.583Z,102374.00
2023-02-13T00:21:17.662Z,102368.00
2023-02-13T00:23:51.882Z,102381.00
2023-02-13T00:26:22.078Z,102369.00
2023-02-13T00:28:52.700Z,102370.00
2023-02-13T00:31:22.317Z,102378.00
2023-02-13T00:33:51.142Z,102372.00
2023-02-13T00:36:22.331Z,102372.00
2023-02-13T00:38:53.839Z,102371.00
2023-02-13T00:41:22.667Z,102373.00
2023-02-13T00:43:50.783Z,102377.00
2023-02-13T00:46:19.637Z,102388.00
2023-02-13T00:48:48.798Z,102371.00
2023-02-13T00:51:19.841Z,102368.00
2023-02-13T00:53:48.607Z,102378.00
2023-02-13T00:56:16.579Z,102374.00
2023-02-13T00:58:43.948Z,102376.00
2023-02-13T01:01:11.334Z,102370.00
2023-02-13T01:03:38.687Z,102375.00
2023-02-13T01:06:06.924Z,102366.00
2023-02-13T01:08:34.685Z,102372.00
2023-02-13T01:11:02.802Z,102378.00
2023-02-13T01:13:30.113Z,102377.00
2023-02-13T01:15:57.426Z,102368.00
2023-02-13T01:18:24.917Z,102377.00
2023-02-13T01:21:00.502Z,102373.00
2023-02-13T01:23:31.039Z,102377.00
2023-02-13T01:25:58.363Z,102372.00
2023-02-13T01:28:26.443Z,102376.00
2023-02-13T01:30:54.371Z,102369.00
2023-02-13T01:33:22.287Z,102365.00
2023-02-13T01:35:49.664Z,102360.00
2023-02-13T01:38:16.951Z,102365.00
2023-02-13T01:40:47.735Z,102360.00
2023-02-13T01:43:15.158Z,102361.00
2023-02-13T01:45:44.038Z,102364.00
2023-02-13T01:48:16.045Z,102362.00
2023-02-13T01:50:48.233Z,102363.00
2023-02-13T01:53:23.609Z,102362.00
2023-02-13T01:55:55.277Z,102359.00
2023-02-13T01:58:27.572Z,102365.00
2023-02-13T02:00:56.012Z,102358.00
2023-02-13T02:03:27.725Z,102363.00
2023-02-13T02:05:57.688Z,102370.00
2023-02-13T02:08:25.380Z,102361.00
2023-02-13T02:10:53.285Z,102360.00
2023-02-13T02:13:21.744Z,102352.00
2023-02-13T02:15:52.707Z,102343.00
2023-02-13T02:18:22.533Z,102352.00
2023-02-13T02:21:24.549Z,102344.00
2023-02-13T02:24:33.212Z,102355.00
2023-02-13T02:27:26.228Z,102354.00
2023-02-13T02:30:41.877Z,102348.00
2023-02-13T02:33:19.732Z,102348.00
2023-02-13T02:35:58.514Z,102348.00
2023-02-13T02:38:41.929Z,102345.00
2023-02-13T02:41:35.829Z,102345.00
2023-02-13T02:44:14.973Z,102350.00
2023-02-13T02:47:10.858Z,102346.00
2023-02-13T02:50:01.246Z,102348.00
2023-02-13T02:52:42.438Z,102346.00
2023-02-13T02:55:17.301Z,102348.00
2023-02-13T02:58:08.603Z,102352.00
2023-02-13T03:00:59.692Z,102356.00
2023-02-13T03:03:46.899Z,102357.00
2023-02-13T03:06:22.885Z,102362.00
2023-02-13T03:09:12.950Z,102356.00
2023-02-13T03:11:59.439Z,102357.00
2023-02-13T03:14:27.955Z,102359.00
2023-02-13T03:17:15.920Z,102355.00
2023-02-13T03:20:13.817Z,102353.00
2023-02-13T03:22:55.031Z,102355.00
2023-02-13T03:25:33.473Z,102350.00
2023-02-13T03:28:26.624Z,102356.00
2023-02-13T03:31:01.807Z,102356.00
2023-02-13T03:33:43.981Z,102360.00
2023-02-13T03:36:37.455Z,102352.00
2023-02-13T03:39:11.341Z,102360.00
2023-02-13T03:41:42.666Z,102369.00
2023-02-13T03:44:16.143Z,102368.00
2023-02-13T03:46:47.268Z,102363.00
2023-02-13T03:49:38.255Z,102364.00
2023-02-13T03:52:10.879Z,102361.00
2023-02-13T03:55:02.644Z,102363.00
2023-02-13T03:57:50.102Z,102356.00
2023-02-13T04:00:19.540Z,102357.00
2023-02-13T04:02:58.316Z,102359.00
2023-02-13T04:05:29.454Z,102368.00
2023-02-13T04:07:56.678Z,102365.00
2023-02-13T04:10:28.865Z,102365.00
2023-02-13T04:13:05.252Z,102374.00
2023-02-13T04:15:38.871Z,102365.00
2023-02-13T04:18:10.861Z,102368.00
2023-02-13T04:20:39.263Z,102361.00
2023-02-13T04:23:08.431Z,102364.00
2023-02-13T04:25:38.132Z,102362.00
2023-02-13T04:28:05.794Z,102362.00
2023-02-13T04:30:33.683Z,102367.00
2023-02-13T04:33:01.342Z,102362.00
2023-02-13T04:35:28.711Z,102361.00
2023-02-13T04:37:56.029Z,102368.00
2023-02-13T04:40:23.431Z,102366.00
2023-02-13T04:42:51.392Z,102368.00
2023-02-13T04:45:18.654Z,102364.00
2023-02-13T04:47:51.545Z,102356.00
2023-02-13T04:50:19.549Z,102349.00
2023-02-13T04:52:47.003Z,102352.00
2023-02-13T04:55:14.981Z,102354.00
2023-02-13T04:57:42.221Z,102356.00
2023-02-13T05:00:11.571Z,102345.00
2023-02-13T05:02:39.709Z,102351.00
2023-02-13T05:05:07.250Z,102355.00
2023-02-13T05:07:34.574Z,102352.00
2023-02-13T05:10:01.877Z,102345.00
2023-02-13T05:12:29.218Z,102343.00
2023-02-13T05:14:56.640Z,102359.00
2023-02-13T05:17:27.260Z,102345.00
2023-02-13T05:19:55.711Z,102355.00
2023-02-13T05:22:41.829Z,102355.00
2023-02-13T05:25:09.486Z,102360.00
2023-02-13T05:27:36.781Z,102357.00
2023-02-13T05:30:04.297Z,102356.00
2023-02-13T05:32:32.257Z,102360.00
2023-02-13T05:34:59.500Z,102358.00
2023-02-13T05:37:26.856Z,102357.00
2023-02-13T05:39:54.192Z,102354.00
2023-02-13T05:42:21.657Z,102346.00
2023-02-13T05:44:49.223Z,102360.00
2023-02-13T05:47:16.582Z,102359.00
2023-02-13T05:49:44.704Z,102360.00
2023-02-13T05:52:12.408Z,102360.00
2023-02-13T05:54:39.687Z,102350.00
2023-02-13T05:57:06.936Z,102359.00
2023-02-13T05:59:34.225Z,102346.00
2023-02-13T06:02:01.484Z,102346.00
2023-02-13T06:04:29.064Z,102348.00
2023-02-13T06:06:57.197Z,102357.00
2023-02-13T06:09:24.678Z,102354.00
2023-02-13T06:11:52.198Z,102349.00
2023-02-13T06:14:19.564Z,102353.00
2023-02-13T06:16:46.870Z,102365.00
2023-02-13T06:19:14.255Z,102359.00
2023-02-13T06:21:41.699Z,102361.00
2023-02-13T06:24:09.778Z,102368.00
2023-02-13T06:26:36.997Z,102368.00
2023-02-13T06:29:05.826Z,102375.00
2023-02-13T06:31:34.275Z,102369.00
2023-02-13T06:34:01.523Z,102373.00
2023-02-13T06:36:29.033Z,102390.00
2023-02-13T06:38:56.345Z,102385.00
2023-02-13T06:41:24.390Z,102389.00
2023-02-13T06:43:51.820Z,102388.00
2023-02-13T06:46:19.133Z,102394.00
2023-02-13T06:48:46.405Z,102385.00
2023-02-13T06:51:13.655Z,102395.00
2023-02-13T06:53:40.828Z,102400.00
2023-02-13T06:56:10.463Z,102391.00
2023-02-13T06:58:39.357Z,102397.00
2023-02-13T07:01:06.883Z,102391.00
2023-02-13T07:03:34.205Z,102397.00
2023-02-13T07:06:01.504Z,102401.00
2023-02-13T07:08:28.793Z,102389.00
2023-02-13T07:10:56.397Z,102394.00
2023-02-13T07:13:23.905Z,102398.00
2023-02-13T07:15:52.172Z,102414.00
2023-02-13T07:18:19.414Z,102404.00
2023-02-13T07:20:46.723Z,102414.00
2023-02-13T07:23:13.974Z,102411.00
2023-02-13T07:25:41.263Z,102412.00
2023-02-13T07:28:09.340Z,102419.00
2023-02-13T07:30:36.689Z,102419.00
2023-02-13T07:33:05.290Z,102414.00
2023-02-13T07:35:32.796Z,102414.00
2023-02-13T07:38:00.147Z,102419.00
2023-02-13T07:40:27.567Z,102422.00
2023-02-13T07:42:54.878Z,102421.00
2023-02-13T07:45:22.161Z,102421.00
2023-02-13T07:47:49.468Z,102419.00
2023-02-13T07:50:17.683Z,102422.00
2023-02-13T07:52:44.963Z,102422.00
2023-02-13T07:55:12.219Z,102420.00
2023-02-13T07:57:39.533Z,102412.00
2023-02-13T08:00:08.189Z,102423.00
2023-02-13T08:02:35.476Z,102425.00
2023-02-13T08:05:02.800Z,102426.00
2023-02-13T08:07:31.138Z,102423.00
2023-02-13T08:10:25.140Z,102437.00
2023-02-13T08:12:53.068Z,102435.00
2023-02-13T08:15:20.493Z,102432.00
2023-02-13T08:17:47.804Z,102436.00
2023-02-13T08:20:15.270Z,102440.00
2023-02-13T08:22:43.248Z,102435.00
2023-02-13T08:25:10.697Z,102436.00
2023-02-13T08:27:38.481Z,102443.00
2023-02-13T08:30:06.950Z,102439.00
2023-02-13T08:32:42.067Z,102438.00
2023-02-13T08:35:15.747Z,102448.00
2023-02-13T08:37:44.782Z,102441.00
2023-02-13T08:40:13.901Z,102445.00
2023-02-13T08:42:41.309Z,102446.00
2023-02-13T08:45:10.985Z,102433.00
2023-02-13T08:47:39.052Z,102433.00
2023-02-13T08:50:07.567Z,102440.00
2023-02-13T08:52:35.088Z,102438.00
2023-02-13T08:55:03.206Z,102430.00
2023-02-13T08:57:30.950Z,102436.00
2023-02-13T08:59:58.248Z,102446.00
2023-02-13T09:02:25.551Z,102446.00
2023-02-13T09:04:52.848Z,102441.00
2023-02-13T09:07:20.120Z,102443.00
2023-02-13T09:09:47.705Z,102452.00
2023-02-13T09:12:15.678Z,102454.00
2023-02-13T09:14:43.142Z,102458.00
2023-02-13T09:17:10.473Z,102464.00
2023-02-13T09:19:37.773Z,102459.00
2023-02-13T09:22:05.046Z,102456.00
2023-02-13T09:24:32.387Z,102454.00
2023-02-13T09:26:59.871Z,102460.00
2023-02-13T09:29:30.704Z,102459.00
2023-02-13T09:31:58.095Z,102454.00
2023-02-13T09:34:25.906Z,102453.00
2023-02-13T09:36:53.436Z,102452.00
2023-02-13T09:39:20.961Z,102450.00
2023-02-13T09:41:50.204Z,102451.00
2023-02-13T09:44:38.368Z,102449.00
2023-02-13T09:47:13.865Z,102448.00
2023-02-13T09:49:45.454Z,102456.00
2023-02-13T09:52:12.814Z,102457.00
2023-02-13T09:54:40.185Z,102463.00
2023-02-13T09:57:16.500Z,102449.00
2023-02-13T09:59:56.352Z,102458.00
2023-02-13T10:02:45.305Z,102466.00
2023-02-13T10:05:26.849Z,102461.00
2023-02-13T10:08:01.329Z,102476.00
2023-02-13T10:10:34.224Z,102476.00
2023-02-13T10:13:13.999Z,102473.00
2023-02-13T10:15:48.619Z,102467.00
2023-02-13T10:18:19.517Z,102465.00
2023-02-13T10:20:51.526Z,102471.00
2023-02-13T10:23:24.383Z,102472.00
2023-02-13T10:25:57.392Z,102475.00
2023-02-13T10:28:32.251Z,102473.00
2023-02-13T10:31:05.736Z,102465.00
2023-02-13T10:33:38.816Z,102449.00
2023-02-13T10:36:12.591Z,102445.00
2023-02-13T10:38:44.464Z,102462.00
2023-02-13T10:41:24.212Z,102450.00
2023-02-13T10:44:01.864Z,102441.00
2023-02-13T10:46:41.160Z,102444.00
2023-02-13T10:49:37.586Z,102437.00
2023-02-13T10:52:16.650Z,102435.00
2023-02-13T10:55:03.031Z,102432.00
2023-02-13T10:57:47.253Z,102431.00
2023-02-13T11:00:22.977Z,102432.00
2023-02-13T11:02:50.464Z,102432.00
2023-02-13T11:05:22.326Z,102423.00
2023-02-13T11:07:49.825Z,102424.00
2023-02-13T11:10:20.006Z,102426.00
2023-02-13T11:12:47.582Z,102422.00
2023-02-13T11:15:26.806Z,102415.00
2023-02-13T11:17:57.028Z,102414.00
2023-02-13T11:20:34.968Z,102416.00
2023-02-13T11:23:35.149Z,102414.00
2023-02-13T11:26:06.962Z,102415.00
2023-02-13T11:28:38.167Z,102414.00
2023-02-13T11:31:18.842Z,102415.00
2023-02-13T11:33:46.199Z,102399.00
2023-02-13T11:36:17.483Z,102410.00
2023-02-13T11:38:44.994Z,102411.00
2023-02-13T11:41:14.086Z,102401.00
2023-02-13T11:43:47.513Z,102404.00
2023-02-13T11:46:19.787Z,102401.00
2023-02-13T11:48:58.759Z,102406.00
2023-02-13T11:51:44.555Z,102403.00
2023-02-13T11:54:27.120Z,102402.00
2023-02-13T11:57:05.504Z,102399.00
2023-02-13T11:59:40.511Z,102403.00
2023-02-13T12:02:17.233Z,102405.00
2023-02-13T12:04:45.434Z,102394.00
2023-02-13T12:07:20.202Z,102386.00
2023-02-13T12:09:51.074Z,102385.00
2023-02-13T12:12:25.466Z,102385.00
2023-02-13T12:14:53.019Z,102386.00
2023-02-13T12:17:31.253Z,102376.00
2023-02-13T12:19:59.794Z,102375.00
2023-02-13T12:22:46.443Z,102376.00
2023-02-13T12:25:40.429Z,102377.00
2023-02-13T12:28:13.226Z,102369.00
2023-02-13T12:31:23.329Z,102366.00
2023-02-13T12:34:25.893Z,102359.00
2023-02-13T12:37:05.869Z,102350.00
2023-02-13T12:39:35.180Z,102360.00
2023-02-13T12:42:27.952Z,102356.00
2023-02-13T12:45:15.650Z,102347.00
2023-02-13T12:47:57.096Z,102355.00
2023-02-13T12:50:43.845Z,102356.00
2023-02-13T12:53:30.471Z,102361.00
2023-02-13T12:56:42.831Z,102362.00
2023-02-13T12:59:13.816Z,102365.00
2023-02-13T13:02:17.005Z,102356.00
2023-02-13T13:04:56.339Z,102353.00
2023-02-13T13:07:47.394Z,102352.00
2023-02-13T13:10:33.257Z,102357.00
2023-02-13T13:13:10.966Z,102361.00
2023-02-13T13:15:47.629Z,102352.00
2023-02-13T13:18:27.315Z,102350.00
2023-02-13T13:21:14.168Z,102347.00
2023-02-13T13:23:49.080Z,102349.00
2023-02-13T13:26:26.817Z,102343.00
2023-02-13T13:28:58.423Z,102363.00
2023-02-13T13:31:28.082Z,102350.00
2023-02-13T13:34:00.336Z,102355.00
2023-02-13T13:36:36.791Z,102366.00
2023-02-13T13:39:13.296Z,102366.00
2023-02-13T13:41:47.727Z,102359.00
2023-02-13T13:44:41.877Z,102368.00
2023-02-13T13:47:20.352Z,102363.00
2023-02-13T13:49:53.572Z,102360.00
2023-02-13T13:52:24.729Z,102346.00
2023-02-13T13:54:53.101Z,102352.00
2023-02-13T13:57:21.261Z,102356.00
2023-02-13T14:00:16.354Z,102339.00
2023-02-13T14:02:46.720Z,102349.00
2023-02-13T14:05:27.629Z,102356.00
2023-02-13T14:07:57.333Z,102359.00
2023-02-13T14:11:06.410Z,102368.00
2023-02-13T14:13:36.793Z,102357.00
2023-02-13T14:16:09.577Z,102359.00
2023-02-13T14:18:38.066Z,102360.00
2023-02-13T14:21:06.030Z,102365.00
2023-02-13T14:23:49.480Z,102365.00
2023-02-13T14:26:37.370Z,102363.00
2023-02-13T14:29:25.579Z,102357.00
2023-02-13T14:32:02.286Z,102354.00
2023-02-13T14:34:32.479Z,102348.00
2023-02-13T14:37:29.395Z,102347.00
2023-02-13T14:40:30.578Z,102339.00
2023-02-13T14:43:01.160Z,102342.00
2023-02-13T14:45:32.235Z,102348.00
2023-02-13T14:48:06.477Z,102335.00
2023-02-13T14:50:45.502Z,102334.00
2023-02-13T14:53:21.167Z,102322.00
2023-02-13T14:55:55.881Z,102326.00
2023-02-13T14:58:28.313Z,102329.00
2023-02-13T15:01:00.450Z,102335.00
2023-02-13T15:03:35.931Z,102329.00
2023-02-13T15:06:10.579Z,102304.00
2023-02-13T15:08:45.293Z,102304.00
2023-02-13T15:11:35.119Z,102301.00
2023-02-13T15:14:20.361Z,102306.00
2023-02-13T15:16:51.550Z,102300.00
2023-02-13T15:19:22.067Z,102297.00
2023-02-13T15:21:53.918Z,102296.00
2023-02-13T15:24:25.372Z,102299.00
2023-02-13T15:27:01.592Z,102294.00
2023-02-13T15:29:40.929Z,102302.00
2023-02-13T15:32:20.715Z,102290.00
2023-02-13T15:34:50.617Z,102290.00
2023-02-13T15:37:22.576Z,102279.00
2023-02-13T15:39:49.963Z,102282.00
2023-02-13T15:42:17.452Z,102285.00
2023-02-13T15:44:48.007Z,102288.00
2023-02-13T15:47:23.386Z,102289.00
2023-02-13T15:49:51.906Z,102287.00
2023-02-13T15:52:22.690Z,102297.00
2023-02-13T15:54:51.224Z,102305.00
2023-02-13T15:57:19.619Z,102314.00
2023-02-13T15:59:47.611Z,102314.00
2023-02-13T16:02:18.323Z,102315.00
2023-02-13T16:04:47.661Z,102305.00
2023-02-13T16:07:16.390Z,102311.00
2023-02-13T16:09:44.583Z,102311.00
2023-02-13T16:12:21.190Z,102303.00
2023-02-13T16:14:54.059Z,102294.00
2023-02-13T16:17:28.824Z,102294.00
2023-02-13T16:20:00.210Z,102299.00
2023-02-13T16:22:35.117Z,102287.00
2023-02-13T16:25:17.506Z,102305.00
2023-02-13T16:27:46.832Z,102307.00
2023-02-13T16:30:25.932Z,102314.00
2023-02-13T16:33:08.362Z,102307.00
2023-02-13T16:35:39.292Z,102312.00
2023-02-13T16:38:33.139Z,102309.00
2023-02-13T16:41:01.904Z,102312.00
2023-02-13T16:43:44.256Z,102309.00
2023-02-13T16:46:22.432Z,102305.00
2023-02-13T16:49:14.264Z,102314.00
2023-02-13T16:51:45.131Z,102303.00
2023-02-13T16:54:21.171Z,102307.00
2023-02-13T16:56:51.238Z,102305.00
2023-02-13T16:59:35.961Z,102294.00
2023-02-13T17:02:22.489Z,102298.00
2023-02-13T17:04:52.393Z,102298.00
2023-02-13T17:07:22.492Z,102294.00
2023-02-13T17:09:59.028Z,102302.00
2023-02-13T17:12:28.172Z,102295.00
2023-02-13T17:14:57.106Z,102306.00
2023-02-13T17:17:27.004Z,102301.00
2023-02-13T17:19:54.499Z,102295.00
2023-02-13T17:22:29.589Z,102288.00
2023-02-13T17:24:57.933Z,102295.00
2023-02-13T17:27:25.548Z,102286.00
2023-02-13T17:29:53.011Z,102280.00
2023-02-13T17:32:22.998Z,102290.00
2023-02-13T17:34:50.359Z,102289.00
2023-02-13T17:37:20.119Z,102297.00
2023-02-13T17:39:48.118Z,102301.00
2023-02-13T17:42:23.327Z,102281.00
2023-02-13T17:44:50.882Z,102288.00
2023-02-13T17:47:19.320Z,102290.00
2023-02-13T17:49:47.274Z,102293.00
2023-02-13T17:52:17.874Z,102300.00
2023-02-13T17:54:47.020Z,102297.00
2023-02-13T17:57:15.806Z,102301.00
2023-02-13T17:59:44.193Z,102300.00
2023-02-13T18:02:14.029Z,102296.00
2023-02-13T18:04:41.417Z,102286.00
2023-02-13T18:07:10.209Z,102280.00
2023-02-13T18:09:39.804Z,102280.00
2023-02-13T18:12:08.021Z,102283.00
2023-02-13T18:14:35.680Z,102285.00
2023-02-13T18:17:03.957Z,102291.00
2023-02-13T18:19:31.322Z,102307.00
2023-02-13T18:21:58.788Z,102303.00
2023-02-13T18:24:29.441Z,102295.00
2023-02-13T18:26:56.944Z,102294.00
2023-02-13T18:29:25.030Z,102298.00
2023-02-13T18:31:52.712Z,102298.00
2023-02-13T18:34:21.300Z,102295.00
2023-02-13T18:36:49.129Z,102295.00
2023-02-13T18:39:17.441Z,102292.00
2023-02-13T18:41:45.478Z,102287.00
2023-02-13T18:44:23.324Z,102288.00
2023-02-13T18:46:55.746Z,102287.00
2023-02-13T18:49:24.630Z,102274.00
2023-02-13T18:51:52.717Z,102282.00
2023-02-13T18:54:21.523Z,102273.00
2023-02-13T18:56:49.379Z,102274.00
2023-02-13T18:59:19.158Z,102271.00
2023-02-13T19:01:46.823Z,102272.00
2023-02-13T19:04:14.536Z,102272.00
2023-02-13T19:06:44.034Z,102272.00
2023-02-13T19:09:12.816Z,102274.00
2023-02-13T19:11:43.873Z,102270.00
2023-02-13T19:14:16.254Z,102266.00
2023-02-13T19:16:43.817Z,102271.00
2023-02-13T19:19:12.360Z,102266.00
2023-02-13T19:21:40.043Z,102259.00
2023-02-13T19:24:10.846Z,102260.00
2023-02-13T19:26:38.500Z,102275.00
2023-02-13T19:29:06.333Z,102278.00
2023-02-13T19:31:34.105Z,102273.00
2023-02-13T19:34:03.726Z,102273.00
2023-02-13T19:36:31.438Z,102278.00
2023-02-13T19:39:02.225Z,102279.00
2023-02-13T19:41:32.355Z,102286.00
2023-02-13T19:44:00.636Z,102281.00
2023-02-13T19:46:31.018Z,102290.00
2023-02-13T19:48:59.547Z,102291.00
2023-02-13T19:51:29.541Z,102297.00
2023-02-13T19:54:02.885Z,102301.00
2023-02-13T19:56:32.999Z,102308.00
2023-02-13T19:59:00.848Z,102302.00
2023-02-13T20:01:29.898Z,102300.00
2023-02-13T20:03:57.965Z,102308.00
2023-02-13T20:06:31.166Z,102294.00
2023-02-13T20:09:01.126Z,102297.00
2023-02-13T20:11:29.457Z,102297.00
2023-02-13T20:14:00.102Z,102289.00
2023-02-13T20:16:32.327Z,102298.00
2023-02-13T20:19:03.294Z,102293.00
2023-02-13T20:21:33.113Z,102296.00
2023-02-13T20:24:02.340Z,102301.00
2023-02-13T20:26:30.577Z,102301.00
2023-02-13T20:28:59.714Z,102304.00
2023-02-13T20:31:29.227Z,102294.00
2023-02-13T20:33:57.839Z,102310.00
2023-02-13T20:36:34.848Z,102316.00
2023-02-13T20:39:04.494Z,102314.00
2023-02-13T20:41:33.991Z,102312.00
2023-02-13T20:44:05.967Z,102313.00
2023-02-13T20:46:35.457Z,102313.00
2023-02-13T20:49:03.729Z,102314.00
2023-02-13T20:51:31.684Z,102304.00
2023-02-13T20:54:01.562Z,102310.00
2023-02-13T20:56:29.859Z,102320.00
2023-02-13T20:59:00.801Z,102313.00
2023-02-13T21:01:31.873Z,102307.00
2023-02-13T21:04:00.326Z,102307.00
2023-02-13T21:06:30.547Z,102323.00
2023-02-13T21:08:58.383Z,102321.00
2023-02-13T21:11:27.768Z,102321.00
2023-02-13T21:13:55.789Z,102319.00
2023-02-13T21:16:28.763Z,102313.00
2023-02-13T21:18:58.912Z,102317.00
2023-02-13T21:21:28.421Z,102314.00
2023-02-13T21:23:57.527Z,102308.00
2023-02-13T21:26:25.752Z,102312.00
2023-02-13T21:28:53.659Z,102313.00
2023-02-13T21:31:25.040Z,102314.00
2023-02-13T21:33:53.680Z,102317.00
2023-02-13T21:36:21.499Z,102328.00
2023-02-13T21:38:49.035Z,102323.00
2023-02-13T21:41:18.384Z,102322.00
2023-02-13T21:43:47.617Z,102317.00
2023-02-13T21:46:17.206Z,102304.00
2023-02-13T21:48:45.391Z,102306.00
2023-02-13T21:51:16.225Z,102307.00
2023-02-13T21:53:44.797Z,102312.00
2023-02-13T21:56:15.395Z,102315.00
2023-02-13T21:58:44.005Z,102312.00
2023-02-13T22:01:20.565Z,102314.00
2023-02-13T22:03:53.102Z,102306.00
2023-02-13T22:06:21.176Z,102305.00
2023-02-13T22:08:49.126Z,102312.00
2023-02-13T22:11:17.575Z,102314.00
2023-02-13T22:13:44.928Z,102319.00
2023-02-13T22:16:14.118Z,102314.00
2023-02-13T22:18:42.983Z,102316.00
2023-02-13T22:21:12.844Z,102317.00
2023-02-13T22:23:42.183Z,102319.00
2023-02-13T22:26:19.638Z,102323.00
2023-02-13T22:28:47.903Z,102316.00
2023-02-13T22:31:16.548Z,102317.00
2023-02-13T22:33:47.596Z,102323.00
2023-02-13T22:36:21.590Z,102331.00
2023-02-13T22:38:50.881Z,102334.00
2023-02-13T22:41:20.995Z,102333.00
2023-02-13T22:43:48.822Z,102330.00
2023-02-13T22:46:18.671Z,102331.00
2023-02-13T22:48:46.271Z,102332.00
2023-02-13T22:51:16.210Z,102328.00
2023-02-13T22:53:43.969Z,102332.00
2023-02-13T22:56:12.949Z,102331.00
2023-02-13T22:58:40.415Z,102332.00
2023-02-13T23:01:12.060Z,102338.00
2023-02-13T23:03:39.665Z,102337.00
2023-02-13T23:06:08.700Z,102345.00
2023-02-13T23:08:36.350Z,102353.00
2023-02-13T23:11:24.382Z,102346.00
2023-02-13T23:13:52.615Z,102351.00
2023-02-13T23:16:20.104Z,102354.00
2023-02-13T23:18:51.500Z,102350.00
2023-02-13T23:21:18.999Z,102353.00
2023-02-13T23:23:46.318Z,102356.00
2023-02-13T23:26:14.050Z,102364.00
2023-02-13T23:28:41.546Z,102357.00
2023-02-13T23:31:09.813Z,102360.00
2023-02-13T23:33:37.329Z,102359.00
2023-02-13T23:36:05.219Z,102358.00
2023-02-13T23:38:32.553Z,102348.00
2023-02-13T23:41:07.213Z,102348.00
2023-02-13T23:43:34.681Z,102345.00
2023-02-13T23:46:03.592Z,102341.00
2023-02-13T23:48:31.953Z,102353.00
2023-02-13T23:50:59.612Z,102345.00
2023-02-13T23:53:27.252Z,102354.00
2023-02-13T23:55:54.562Z,102346.00
2023-02-13T23:58:21.925Z,102347.00
